sensor_id;sensor_type;location;lat;lon;timestamp;P1;durP1;ratioP1;P2;durP2;ratioP2
20230;SDS011;10274;49.022;9.338;2023-04-24T00:02:22;0.40;;;0.35;;
20230;SDS011;10274;49.022;9.338;2023-04-24T00:04:49;0.40;;;0.40;;
20230;SDS011;10274;49.022;9.338;2023-04-24T00:07:15;1.45;;;0.60;;
20230;SDS011;10274;49.022;9.338;2023-04-24T00:09:42;1.30;;;0.53;;
20230;SDS011;10274;49.022;9.338;2023-04-24T00:12:09;1.42;;;0.90;;
20230;SDS011;10274;49.022;9.338;2023-04-24T00:14:37;1.30;;;0.50;;
20230;SDS011;10274;49.022;9.338;2023-04-24T00:17:04;0.43;;;0.43;;
20230;SDS011;10274;49.022;9.338;2023-04-24T00:19:31;0.65;;;0.60;;
20230;SDS011;10274;49.022;9.338;2023-04-24T00:22:01;0.50;;;0.50;;
20230;SDS011;10274;49.022;9.338;2023-04-24T00:24:28;0.63;;;0.50;;
20230;SDS011;10274;49.022;9.338;2023-04-24T00:26:55;0.95;;;0.47;;
20230;SDS011;10274;49.022;9.338;2023-04-24T00:29:22;0.90;;;0.60;;
20230;SDS011;10274;49.022;9.338;2023-04-24T00:31:50;1.00;;;0.40;;
20230;SDS011;10274;49.022;9.338;2023-04-24T00:34:16;0.40;;;0.40;;
20230;SDS011;10274;49.022;9.338;2023-04-24T00:36:43;0.60;;;0.50;;
20230;SDS011;10274;49.022;9.338;2023-04-24T00:39:10;0.80;;;0.57;;
20230;SDS011;10274;49.022;9.338;2023-04-24T00:41:37;0.60;;;0.55;;
20230;SDS011;10274;49.022;9.338;2023-04-24T00:44:03;0.55;;;0.55;;
20230;SDS011;10274;49.022;9.338;2023-04-24T00:46:30;0.52;;;0.52;;
20230;SDS011;10274;49.022;9.338;2023-04-24T00:48:59;0.40;;;0.40;;
20230;SDS011;10274;49.022;9.338;2023-04-24T00:51:26;0.60;;;0.55;;
20230;SDS011;10274;49.022;9.338;2023-04-24T00:53:52;0.68;;;0.60;;
20230;SDS011;10274;49.022;9.338;2023-04-24T00:56:19;1.30;;;0.63;;
20230;SDS011;10274;49.022;9.338;2023-04-24T00:58:46;1.40;;;0.45;;
20230;SDS011;10274;49.022;9.338;2023-04-24T01:01:13;0.70;;;0.70;;
20230;SDS011;10274;49.022;9.338;2023-04-24T01:03:40;0.60;;;0.60;;
20230;SDS011;10274;49.022;9.338;2023-04-24T01:06:08;0.38;;;0.38;;
20230;SDS011;10274;49.022;9.338;2023-04-24T01:08:36;0.90;;;0.60;;
20230;SDS011;10274;49.022;9.338;2023-04-24T01:11:06;1.20;;;0.77;;
20230;SDS011;10274;49.022;9.338;2023-04-24T01:13:33;0.73;;;0.60;;
20230;SDS011;10274;49.022;9.338;2023-04-24T01:16:00;0.52;;;0.40;;
20230;SDS011;10274;49.022;9.338;2023-04-24T01:18:27;0.40;;;0.40;;
20230;SDS011;10274;49.022;9.338;2023-04-24T01:20:56;0.77;;;0.70;;
20230;SDS011;10274;49.022;9.338;2023-04-24T01:23:26;0.60;;;0.50;;
20230;SDS011;10274;49.022;9.338;2023-04-24T01:25:53;0.60;;;0.50;;
20230;SDS011;10274;49.022;9.338;2023-04-24T01:28:20;0.57;;;0.33;;
20230;SDS011;10274;49.022;9.338;2023-04-24T01:30:47;0.40;;;0.40;;
20230;SDS011;10274;49.022;9.338;2023-04-24T01:33:14;2.00;;;0.47;;
20230;SDS011;10274;49.022;9.338;2023-04-24T01:35:42;0.60;;;0.60;;
20230;SDS011;10274;49.022;9.338;2023-04-24T01:38:09;0.60;;;0.60;;
20230;SDS011;10274;49.022;9.338;2023-04-24T01:40:37;1.77;;;0.40;;
20230;SDS011;10274;49.022;9.338;2023-04-24T01:43:03;0.50;;;0.50;;
20230;SDS011;10274;49.022;9.338;2023-04-24T01:45:30;1.40;;;0.50;;
20230;SDS011;10274;49.022;9.338;2023-04-24T01:47:57;0.50;;;0.40;;
20230;SDS011;10274;49.022;9.338;2023-04-24T01:50:24;0.50;;;0.50;;
20230;SDS011;10274;49.022;9.338;2023-04-24T01:52:51;0.40;;;0.40;;
20230;SDS011;10274;49.022;9.338;2023-04-24T01:55:18;1.60;;;0.60;;
20230;SDS011;10274;49.022;9.338;2023-04-24T01:57:46;0.63;;;0.40;;
20230;SDS011;10274;49.022;9.338;2023-04-24T02:00:13;0.50;;;0.50;;
20230;SDS011;10274;49.022;9.338;2023-04-24T02:02:40;0.35;;;0.30;;
20230;SDS011;10274;49.022;9.338;2023-04-24T02:05:08;0.60;;;0.40;;
20230;SDS011;10274;49.022;9.338;2023-04-24T02:07:36;0.70;;;0.63;;
20230;SDS011;10274;49.022;9.338;2023-04-24T02:10:03;0.40;;;0.40;;
20230;SDS011;10274;49.022;9.338;2023-04-24T02:12:30;0.47;;;0.43;;
20230;SDS011;10274;49.022;9.338;2023-04-24T02:14:58;1.10;;;0.50;;
20230;SDS011;10274;49.022;9.338;2023-04-24T02:17:25;0.40;;;0.40;;
20230;SDS011;10274;49.022;9.338;2023-04-24T02:19:51;1.25;;;0.45;;
20230;SDS011;10274;49.022;9.338;2023-04-24T02:22:18;0.70;;;0.60;;
20230;SDS011;10274;49.022;9.338;2023-04-24T02:24:45;0.45;;;0.45;;
20230;SDS011;10274;49.022;9.338;2023-04-24T02:27:11;0.50;;;0.50;;
20230;SDS011;10274;49.022;9.338;2023-04-24T02:29:38;0.77;;;0.40;;
20230;SDS011;10274;49.022;9.338;2023-04-24T02:32:06;0.73;;;0.52;;
20230;SDS011;10274;49.022;9.338;2023-04-24T02:34:36;0.38;;;0.38;;
20230;SDS011;10274;49.022;9.338;2023-04-24T02:37:03;0.70;;;0.40;;
20230;SDS011;10274;49.022;9.338;2023-04-24T02:39:29;0.30;;;0.30;;
20230;SDS011;10274;49.022;9.338;2023-04-24T02:41:56;0.60;;;0.60;;
20230;SDS011;10274;49.022;9.338;2023-04-24T02:44:23;0.70;;;0.50;;
20230;SDS011;10274;49.022;9.338;2023-04-24T02:46:49;1.00;;;0.70;;
20230;SDS011;10274;49.022;9.338;2023-04-24T02:49:17;0.80;;;0.50;;
20230;SDS011;10274;49.022;9.338;2023-04-24T02:51:44;0.40;;;0.40;;
20230;SDS011;10274;49.022;9.338;2023-04-24T02:54:11;1.10;;;0.50;;
20230;SDS011;10274;49.022;9.338;2023-04-24T02:56:37;0.60;;;0.55;;
20230;SDS011;10274;49.022;9.338;2023-04-24T02:59:04;0.40;;;0.35;;
20230;SDS011;10274;49.022;9.338;2023-04-24T03:01:31;0.50;;;0.50;;
20230;SDS011;10274;49.022;9.338;2023-04-24T03:03:58;1.20;;;0.50;;
20230;SDS011;10274;49.022;9.338;2023-04-24T03:06:26;0.30;;;0.30;;
20230;SDS011;10274;49.022;9.338;2023-04-24T03:08:53;0.20;;;0.20;;
20230;SDS011;10274;49.022;9.338;2023-04-24T03:11:20;0.52;;;0.50;;
20230;SDS011;10274;49.022;9.338;2023-04-24T03:13:46;0.40;;;0.40;;
20230;SDS011;10274;49.022;9.338;2023-04-24T03:16:13;0.70;;;0.50;;
20230;SDS011;10274;49.022;9.338;2023-04-24T03:18:40;1.52;;;0.50;;
20230;SDS011;10274;49.022;9.338;2023-04-24T03:21:06;1.15;;;0.40;;
20230;SDS011;10274;49.022;9.338;2023-04-24T03:23:34;0.40;;;0.20;;
20230;SDS011;10274;49.022;9.338;2023-04-24T03:26:01;0.32;;;0.32;;
20230;SDS011;10274;49.022;9.338;2023-04-24T03:28:28;0.32;;;0.32;;
20230;SDS011;10274;49.022;9.338;2023-04-24T03:30:54;0.70;;;0.30;;
20230;SDS011;10274;49.022;9.338;2023-04-24T03:33:21;0.57;;;0.50;;
20230;SDS011;10274;49.022;9.338;2023-04-24T03:35:48;0.28;;;0.28;;
20230;SDS011;10274;49.022;9.338;2023-04-24T03:38:14;0.60;;;0.30;;
20230;SDS011;10274;49.022;9.338;2023-04-24T03:40:42;0.60;;;0.43;;
20230;SDS011;10274;49.022;9.338;2023-04-24T03:43:09;0.50;;;0.50;;
20230;SDS011;10274;49.022;9.338;2023-04-24T03:45:36;0.40;;;0.40;;
20230;SDS011;10274;49.022;9.338;2023-04-24T03:48:02;0.50;;;0.45;;
20230;SDS011;10274;49.022;9.338;2023-04-24T03:50:29;0.50;;;0.50;;
20230;SDS011;10274;49.022;9.338;2023-04-24T03:52:56;0.90;;;0.50;;
20230;SDS011;10274;49.022;9.338;2023-04-24T03:55:22;0.80;;;0.57;;
20230;SDS011;10274;49.022;9.338;2023-04-24T03:57:51;0.50;;;0.43;;
20230;SDS011;10274;49.022;9.338;2023-04-24T04:00:17;0.40;;;0.40;;
20230;SDS011;10274;49.022;9.338;2023-04-24T04:02:45;1.20;;;0.50;;
20230;SDS011;10274;49.022;9.338;2023-04-24T04:05:12;0.65;;;0.50;;
20230;SDS011;10274;49.022;9.338;2023-04-24T04:07:39;0.52;;;0.43;;
20230;SDS011;10274;49.022;9.338;2023-04-24T04:10:06;0.80;;;0.33;;
20230;SDS011;10274;49.022;9.338;2023-04-24T04:12:33;0.40;;;0.40;;
20230;SDS011;10274;49.022;9.338;2023-04-24T04:15:01;0.73;;;0.47;;
20230;SDS011;10274;49.022;9.338;2023-04-24T04:17:28;1.20;;;0.60;;
20230;SDS011;10274;49.022;9.338;2023-04-24T04:19:55;1.30;;;0.40;;
20230;SDS011;10274;49.022;9.338;2023-04-24T04:22:22;0.40;;;0.40;;
20230;SDS011;10274;49.022;9.338;2023-04-24T04:24:49;1.10;;;1.00;;
20230;SDS011;10274;49.022;9.338;2023-04-24T04:27:16;0.60;;;0.57;;
20230;SDS011;10274;49.022;9.338;2023-04-24T04:29:43;0.57;;;0.57;;
20230;SDS011;10274;49.022;9.338;2023-04-24T04:32:12;0.68;;;0.40;;
20230;SDS011;10274;49.022;9.338;2023-04-24T04:34:38;0.47;;;0.47;;
20230;SDS011;10274;49.022;9.338;2023-04-24T04:37:05;0.70;;;0.70;;
20230;SDS011;10274;49.022;9.338;2023-04-24T04:39:31;0.70;;;0.70;;
20230;SDS011;10274;49.022;9.338;2023-04-24T04:41:58;0.50;;;0.50;;
20230;SDS011;10274;49.022;9.338;2023-04-24T04:44:25;1.40;;;0.60;;
20230;SDS011;10274;49.022;9.338;2023-04-24T04:46:53;0.82;;;0.70;;
20230;SDS011;10274;49.022;9.338;2023-04-24T04:49:22;0.50;;;0.50;;
20230;SDS011;10274;49.022;9.338;2023-04-24T04:51:49;0.90;;;0.70;;
20230;SDS011;10274;49.022;9.338;2023-04-24T04:54:16;0.45;;;0.45;;
20230;SDS011;10274;49.022;9.338;2023-04-24T04:56:43;0.90;;;0.57;;
20230;SDS011;10274;49.022;9.338;2023-04-24T04:59:10;1.17;;;0.57;;
20230;SDS011;10274;49.022;9.338;2023-04-24T05:01:37;0.50;;;0.50;;
20230;SDS011;10274;49.022;9.338;2023-04-24T05:04:04;0.75;;;0.70;;
20230;SDS011;10274;49.022;9.338;2023-04-24T05:06:32;0.70;;;0.70;;
20230;SDS011;10274;49.022;9.338;2023-04-24T05:08:59;1.40;;;0.60;;
20230;SDS011;10274;49.022;9.338;2023-04-24T05:11:25;1.00;;;0.60;;
20230;SDS011;10274;49.022;9.338;2023-04-24T05:13:52;0.52;;;0.52;;
20230;SDS011;10274;49.022;9.338;2023-04-24T05:16:19;0.95;;;0.85;;
20230;SDS011;10274;49.022;9.338;2023-04-24T05:18:45;0.75;;;0.45;;
20230;SDS011;10274;49.022;9.338;2023-04-24T05:21:12;1.08;;;0.70;;
20230;SDS011;10274;49.022;9.338;2023-04-24T05:23:40;1.00;;;0.60;;
20230;SDS011;10274;49.022;9.338;2023-04-24T05:26:07;1.30;;;0.55;;
20230;SDS011;10274;49.022;9.338;2023-04-24T05:28:34;0.60;;;0.60;;
20230;SDS011;10274;49.022;9.338;2023-04-24T05:31:01;0.93;;;0.47;;
20230;SDS011;10274;49.022;9.338;2023-04-24T05:33:28;0.60;;;0.55;;
20230;SDS011;10274;49.022;9.338;2023-04-24T05:35:55;0.90;;;0.80;;
20230;SDS011;10274;49.022;9.338;2023-04-24T05:38:21;1.43;;;1.10;;
20230;SDS011;10274;49.022;9.338;2023-04-24T05:40:50;0.80;;;0.80;;
20230;SDS011;10274;49.022;9.338;2023-04-24T05:43:17;1.88;;;1.15;;
20230;SDS011;10274;49.022;9.338;2023-04-24T05:45:44;1.10;;;1.00;;
20230;SDS011;10274;49.022;9.338;2023-04-24T05:48:10;0.88;;;0.88;;
20230;SDS011;10274;49.022;9.338;2023-04-24T05:50:37;1.52;;;1.35;;
20230;SDS011;10274;49.022;9.338;2023-04-24T05:53:04;0.75;;;0.75;;
20230;SDS011;10274;49.022;9.338;2023-04-24T05:55:32;0.95;;;0.90;;
20230;SDS011;10274;49.022;9.338;2023-04-24T05:58:00;1.20;;;1.13;;
20230;SDS011;10274;49.022;9.338;2023-04-24T06:00:26;11.10;;;2.42;;
20230;SDS011;10274;49.022;9.338;2023-04-24T06:02:53;1.90;;;0.90;;
20230;SDS011;10274;49.022;9.338;2023-04-24T06:05:20;1.40;;;1.30;;
20230;SDS011;10274;49.022;9.338;2023-04-24T06:07:47;1.23;;;1.13;;
20230;SDS011;10274;49.022;9.338;2023-04-24T06:10:14;1.30;;;1.13;;
20230;SDS011;10274;49.022;9.338;2023-04-24T06:12:40;1.87;;;1.57;;
20230;SDS011;10274;49.022;9.338;2023-04-24T06:15:09;1.30;;;1.20;;
20230;SDS011;10274;49.022;9.338;2023-04-24T06:17:36;1.40;;;1.30;;
20230;SDS011;10274;49.022;9.338;2023-04-24T06:22:31;1.93;;;1.50;;
20230;SDS011;10274;49.022;9.338;2023-04-24T06:24:57;3.05;;;1.55;;
20230;SDS011;10274;49.022;9.338;2023-04-24T06:27:25;1.98;;;1.40;;
20230;SDS011;10274;49.022;9.338;2023-04-24T06:29:51;2.47;;;1.50;;
20230;SDS011;10274;49.022;9.338;2023-04-24T06:32:21;1.80;;;1.50;;
20230;SDS011;10274;49.022;9.338;2023-04-24T06:34:48;1.60;;;1.27;;
20230;SDS011;10274;49.022;9.338;2023-04-24T06:37:15;7.25;;;3.70;;
20230;SDS011;10274;49.022;9.338;2023-04-24T06:39:42;1.77;;;1.50;;
20230;SDS011;10274;49.022;9.338;2023-04-24T06:42:08;1.52;;;1.10;;
20230;SDS011;10274;49.022;9.338;2023-04-24T06:44:35;1.60;;;1.37;;
20230;SDS011;10274;49.022;9.338;2023-04-24T06:47:05;1.42;;;1.30;;
20230;SDS011;10274;49.022;9.338;2023-04-24T06:49:33;2.22;;;1.20;;
20230;SDS011;10274;49.022;9.338;2023-04-24T06:52:00;2.30;;;1.30;;
20230;SDS011;10274;49.022;9.338;2023-04-24T06:54:27;1.67;;;1.48;;
20230;SDS011;10274;49.022;9.338;2023-04-24T06:56:54;1.45;;;1.08;;
20230;SDS011;10274;49.022;9.338;2023-04-24T06:59:22;1.70;;;1.20;;
20230;SDS011;10274;49.022;9.338;2023-04-24T07:01:49;1.55;;;1.23;;
20230;SDS011;10274;49.022;9.338;2023-04-24T07:04:16;1.60;;;1.30;;
20230;SDS011;10274;49.022;9.338;2023-04-24T07:06:44;1.20;;;1.10;;
20230;SDS011;10274;49.022;9.338;2023-04-24T07:09:11;1.60;;;1.10;;
20230;SDS011;10274;49.022;9.338;2023-04-24T07:11:40;2.17;;;1.55;;
20230;SDS011;10274;49.022;9.338;2023-04-24T07:14:07;1.40;;;1.30;;
20230;SDS011;10274;49.022;9.338;2023-04-24T07:16:35;1.30;;;1.20;;
20230;SDS011;10274;49.022;9.338;2023-04-24T07:19:01;1.88;;;1.13;;
20230;SDS011;10274;49.022;9.338;2023-04-24T07:21:28;1.27;;;1.17;;
20230;SDS011;10274;49.022;9.338;2023-04-24T07:23:57;1.48;;;1.27;;
20230;SDS011;10274;49.022;9.338;2023-04-24T07:26:24;1.80;;;1.58;;
20230;SDS011;10274;49.022;9.338;2023-04-24T07:28:52;1.85;;;1.23;;
20230;SDS011;10274;49.022;9.338;2023-04-24T07:31:19;1.15;;;1.05;;
20230;SDS011;10274;49.022;9.338;2023-04-24T07:33:46;1.15;;;1.00;;
20230;SDS011;10274;49.022;9.338;2023-04-24T07:36:13;1.13;;;1.02;;
20230;SDS011;10274;49.022;9.338;2023-04-24T07:38:43;1.10;;;1.00;;
20230;SDS011;10274;49.022;9.338;2023-04-24T07:41:12;1.38;;;1.20;;
20230;SDS011;10274;49.022;9.338;2023-04-24T07:43:38;1.10;;;1.00;;
20230;SDS011;10274;49.022;9.338;2023-04-24T07:46:05;1.60;;;1.20;;
20230;SDS011;10274;49.022;9.338;2023-04-24T07:48:32;1.40;;;1.05;;
20230;SDS011;10274;49.022;9.338;2023-04-24T07:50:59;0.98;;;0.85;;
20230;SDS011;10274;49.022;9.338;2023-04-24T07:53:25;1.30;;;1.20;;
20230;SDS011;10274;49.022;9.338;2023-04-24T07:55:53;1.08;;;0.90;;
20230;SDS011;10274;49.022;9.338;2023-04-24T07:58:21;1.77;;;0.98;;
20230;SDS011;10274;49.022;9.338;2023-04-24T08:00:48;0.90;;;0.90;;
20230;SDS011;10274;49.022;9.338;2023-04-24T08:03:15;1.10;;;1.00;;
20230;SDS011;10274;49.022;9.338;2023-04-24T08:05:44;2.00;;;1.00;;
20230;SDS011;10274;49.022;9.338;2023-04-24T08:08:11;1.02;;;0.90;;
20230;SDS011;10274;49.022;9.338;2023-04-24T08:10:38;1.03;;;0.97;;
20230;SDS011;10274;49.022;9.338;2023-04-24T08:13:04;1.65;;;1.27;;
20230;SDS011;10274;49.022;9.338;2023-04-24T08:15:33;0.80;;;0.77;;
20230;SDS011;10274;49.022;9.338;2023-04-24T08:17:59;2.30;;;1.30;;
20230;SDS011;10274;49.022;9.338;2023-04-24T08:20:26;1.20;;;1.10;;
20230;SDS011;10274;49.022;9.338;2023-04-24T08:22:53;1.10;;;0.95;;
20230;SDS011;10274;49.022;9.338;2023-04-24T08:25:21;2.17;;;1.02;;
20230;SDS011;10274;49.022;9.338;2023-04-24T08:27:49;0.80;;;0.80;;
20230;SDS011;10274;49.022;9.338;2023-04-24T08:30:16;1.27;;;0.93;;
20230;SDS011;10274;49.022;9.338;2023-04-24T08:32:44;0.80;;;0.80;;
20230;SDS011;10274;49.022;9.338;2023-04-24T08:35:11;1.20;;;0.67;;
20230;SDS011;10274;49.022;9.338;2023-04-24T08:37:38;1.60;;;0.80;;
20230;SDS011;10274;49.022;9.338;2023-04-24T08:40:06;0.60;;;0.60;;
20230;SDS011;10274;49.022;9.338;2023-04-24T08:42:39;1.10;;;0.88;;
20230;SDS011;10274;49.022;9.338;2023-04-24T08:45:07;0.70;;;0.60;;
20230;SDS011;10274;49.022;9.338;2023-04-24T08:47:35;0.80;;;0.80;;
20230;SDS011;10274;49.022;9.338;2023-04-24T08:50:05;1.42;;;0.90;;
20230;SDS011;10274;49.022;9.338;2023-04-24T08:52:33;0.60;;;0.60;;
20230;SDS011;10274;49.022;9.338;2023-04-24T08:55:01;0.98;;;0.82;;
20230;SDS011;10274;49.022;9.338;2023-04-24T08:57:28;1.38;;;0.90;;
20230;SDS011;10274;49.022;9.338;2023-04-24T08:59:56;1.13;;;0.90;;
20230;SDS011;10274;49.022;9.338;2023-04-24T09:02:24;1.50;;;1.00;;
20230;SDS011;10274;49.022;9.338;2023-04-24T09:04:51;2.25;;;1.00;;
20230;SDS011;10274;49.022;9.338;2023-04-24T09:07:20;0.60;;;0.60;;
20230;SDS011;10274;49.022;9.338;2023-04-24T09:09:50;0.53;;;0.53;;
20230;SDS011;10274;49.022;9.338;2023-04-24T09:12:17;0.80;;;0.80;;
20230;SDS011;10274;49.022;9.338;2023-04-24T09:14:44;0.60;;;0.60;;
20230;SDS011;10274;49.022;9.338;2023-04-24T09:17:11;0.80;;;0.80;;
20230;SDS011;10274;49.022;9.338;2023-04-24T09:19:38;0.60;;;0.60;;
20230;SDS011;10274;49.022;9.338;2023-04-24T09:22:05;0.60;;;0.60;;
20230;SDS011;10274;49.022;9.338;2023-04-24T09:24:34;0.60;;;0.60;;
20230;SDS011;10274;49.022;9.338;2023-04-24T09:27:01;0.77;;;0.67;;
20230;SDS011;10274;49.022;9.338;2023-04-24T09:29:28;0.90;;;0.60;;
20230;SDS011;10274;49.022;9.338;2023-04-24T09:31:56;0.63;;;0.63;;
20230;SDS011;10274;49.022;9.338;2023-04-24T09:34:23;2.30;;;0.53;;
20230;SDS011;10274;49.022;9.338;2023-04-24T09:36:51;0.70;;;0.63;;
20230;SDS011;10274;49.022;9.338;2023-04-24T09:39:19;3.00;;;1.73;;
20230;SDS011;10274;49.022;9.338;2023-04-24T09:41:48;0.70;;;0.70;;
20230;SDS011;10274;49.022;9.338;2023-04-24T09:44:16;0.77;;;0.77;;
20230;SDS011;10274;49.022;9.338;2023-04-24T09:46:45;1.03;;;0.83;;
20230;SDS011;10274;49.022;9.338;2023-04-24T09:49:16;0.70;;;0.70;;
20230;SDS011;10274;49.022;9.338;2023-04-24T09:51:47;0.60;;;0.60;;
20230;SDS011;10274;49.022;9.338;2023-04-24T09:54:14;2.80;;;0.87;;
20230;SDS011;10274;49.022;9.338;2023-04-24T09:56:42;0.67;;;0.67;;
20230;SDS011;10274;49.022;9.338;2023-04-24T09:59:12;1.73;;;0.73;;
20230;SDS011;10274;49.022;9.338;2023-04-24T10:01:39;1.50;;;0.97;;
20230;SDS011;10274;49.022;9.338;2023-04-24T10:04:15;0.60;;;0.60;;
20230;SDS011;10274;49.022;9.338;2023-04-24T10:06:43;1.00;;;0.90;;
20230;SDS011;10274;49.022;9.338;2023-04-24T10:09:10;1.10;;;1.00;;
20230;SDS011;10274;49.022;9.338;2023-04-24T10:11:39;1.07;;;0.93;;
20230;SDS011;10274;49.022;9.338;2023-04-24T10:14:09;0.60;;;0.60;;
20230;SDS011;10274;49.022;9.338;2023-04-24T10:16:38;0.90;;;0.90;;
20230;SDS011;10274;49.022;9.338;2023-04-24T10:19:06;1.83;;;1.17;;
20230;SDS011;10274;49.022;9.338;2023-04-24T10:21:33;1.23;;;1.13;;
20230;SDS011;10274;49.022;9.338;2023-04-24T10:24:00;0.83;;;0.80;;
20230;SDS011;10274;49.022;9.338;2023-04-24T10:26:28;1.00;;;0.93;;
20230;SDS011;10274;49.022;9.338;2023-04-24T10:28:56;1.07;;;0.97;;
20230;SDS011;10274;49.022;9.338;2023-04-24T10:31:24;0.90;;;0.90;;
20230;SDS011;10274;49.022;9.338;2023-04-24T10:33:53;1.10;;;1.00;;
20230;SDS011;10274;49.022;9.338;2023-04-24T10:36:21;5.60;;;2.87;;
20230;SDS011;10274;49.022;9.338;2023-04-24T10:38:51;0.80;;;0.80;;
20230;SDS011;10274;49.022;9.338;2023-04-24T10:41:20;1.20;;;1.10;;
20230;SDS011;10274;49.022;9.338;2023-04-24T10:43:48;1.97;;;0.90;;
20230;SDS011;10274;49.022;9.338;2023-04-24T10:46:16;1.87;;;1.20;;
20230;SDS011;10274;49.022;9.338;2023-04-24T10:48:51;1.20;;;1.10;;
20230;SDS011;10274;49.022;9.338;2023-04-24T10:51:21;1.67;;;1.40;;
20230;SDS011;10274;49.022;9.338;2023-04-24T10:53:49;2.60;;;1.90;;
20230;SDS011;10274;49.022;9.338;2023-04-24T10:56:17;1.10;;;1.00;;
20230;SDS011;10274;49.022;9.338;2023-04-24T10:58:44;1.57;;;1.30;;
20230;SDS011;10274;49.022;9.338;2023-04-24T11:01:24;1.53;;;1.10;;
20230;SDS011;10274;49.022;9.338;2023-04-24T11:03:55;3.10;;;1.17;;
20230;SDS011;10274;49.022;9.338;2023-04-24T11:06:29;1.57;;;1.27;;
20230;SDS011;10274;49.022;9.338;2023-04-24T11:09:01;1.03;;;0.93;;
20230;SDS011;10274;49.022;9.338;2023-04-24T11:11:30;1.53;;;1.20;;
20230;SDS011;10274;49.022;9.338;2023-04-24T11:14:00;1.37;;;1.00;;
20230;SDS011;10274;49.022;9.338;2023-04-24T11:16:30;2.27;;;1.13;;
20230;SDS011;10274;49.022;9.338;2023-04-24T11:19:03;1.10;;;0.80;;
20230;SDS011;10274;49.022;9.338;2023-04-24T11:21:32;0.90;;;0.80;;
20230;SDS011;10274;49.022;9.338;2023-04-24T11:24:24;1.90;;;1.00;;
20230;SDS011;10274;49.022;9.338;2023-04-24T11:27:00;1.10;;;1.00;;
20230;SDS011;10274;49.022;9.338;2023-04-24T11:29:42;1.00;;;0.90;;
20230;SDS011;10274;49.022;9.338;2023-04-24T11:32:15;1.03;;;1.00;;
20230;SDS011;10274;49.022;9.338;2023-04-24T11:34:46;1.73;;;1.10;;
20230;SDS011;10274;49.022;9.338;2023-04-24T11:37:13;1.23;;;1.07;;
20230;SDS011;10274;49.022;9.338;2023-04-24T11:39:40;1.40;;;0.93;;
20230;SDS011;10274;49.022;9.338;2023-04-24T11:42:07;1.03;;;0.87;;
20230;SDS011;10274;49.022;9.338;2023-04-24T11:44:35;1.93;;;0.97;;
20230;SDS011;10274;49.022;9.338;2023-04-24T11:47:02;1.17;;;1.03;;
20230;SDS011;10274;49.022;9.338;2023-04-24T11:49:29;1.27;;;1.17;;
20230;SDS011;10274;49.022;9.338;2023-04-24T11:51:57;1.23;;;1.13;;
20230;SDS011;10274;49.022;9.338;2023-04-24T11:54:23;1.13;;;1.03;;
20230;SDS011;10274;49.022;9.338;2023-04-24T11:56:50;1.33;;;1.20;;
20230;SDS011;10274;49.022;9.338;2023-04-24T11:59:17;1.50;;;1.10;;
20230;SDS011;10274;49.022;9.338;2023-04-24T12:01:43;1.23;;;1.13;;
20230;SDS011;10274;49.022;9.338;2023-04-24T12:04:11;2.07;;;1.30;;
20230;SDS011;10274;49.022;9.338;2023-04-24T12:06:38;1.80;;;1.43;;
20230;SDS011;10274;49.022;9.338;2023-04-24T12:09:06;1.63;;;1.17;;
20230;SDS011;10274;49.022;9.338;2023-04-24T12:11:34;1.43;;;1.07;;
20230;SDS011;10274;49.022;9.338;2023-04-24T12:14:09;1.17;;;1.13;;
20230;SDS011;10274;49.022;9.338;2023-04-24T12:16:36;1.40;;;1.30;;
20230;SDS011;10274;49.022;9.338;2023-04-24T12:19:04;1.10;;;1.00;;
20230;SDS011;10274;49.022;9.338;2023-04-24T12:21:31;0.87;;;0.83;;
20230;SDS011;10274;49.022;9.338;2023-04-24T12:23:57;2.40;;;1.30;;
20230;SDS011;10274;49.022;9.338;2023-04-24T12:26:26;1.10;;;1.00;;
20230;SDS011;10274;49.022;9.338;2023-04-24T12:28:54;1.27;;;1.00;;
20230;SDS011;10274;49.022;9.338;2023-04-24T12:31:20;0.93;;;0.90;;
20230;SDS011;10274;49.022;9.338;2023-04-24T12:33:47;2.60;;;1.40;;
20230;SDS011;10274;49.022;9.338;2023-04-24T12:36:14;1.10;;;1.00;;
20230;SDS011;10274;49.022;9.338;2023-04-24T12:38:43;1.60;;;1.40;;
20230;SDS011;10274;49.022;9.338;2023-04-24T12:41:11;1.60;;;1.43;;
20230;SDS011;10274;49.022;9.338;2023-04-24T12:43:51;1.20;;;1.10;;
20230;SDS011;10274;49.022;9.338;2023-04-24T12:46:18;2.03;;;1.70;;
20230;SDS011;10274;49.022;9.338;2023-04-24T12:48:45;2.10;;;1.57;;
20230;SDS011;10274;49.022;9.338;2023-04-24T12:51:12;1.53;;;1.37;;
20230;SDS011;10274;49.022;9.338;2023-04-24T12:53:39;1.13;;;1.03;;
20230;SDS011;10274;49.022;9.338;2023-04-24T12:56:05;1.50;;;1.40;;
20230;SDS011;10274;49.022;9.338;2023-04-24T12:58:32;1.53;;;1.43;;
20230;SDS011;10274;49.022;9.338;2023-04-24T13:01:00;1.70;;;1.60;;
20230;SDS011;10274;49.022;9.338;2023-04-24T13:03:27;1.60;;;1.50;;
20230;SDS011;10274;49.022;9.338;2023-04-24T13:05:53;1.87;;;1.57;;
20230;SDS011;10274;49.022;9.338;2023-04-24T13:08:20;1.80;;;1.70;;
20230;SDS011;10274;49.022;9.338;2023-04-24T13:10:47;1.80;;;1.70;;
20230;SDS011;10274;49.022;9.338;2023-04-24T13:13:13;2.03;;;1.80;;
20230;SDS011;10274;49.022;9.338;2023-04-24T13:15:41;4.10;;;2.43;;
20230;SDS011;10274;49.022;9.338;2023-04-24T13:18:09;2.07;;;1.87;;
20230;SDS011;10274;49.022;9.338;2023-04-24T13:20:35;2.47;;;1.83;;
20230;SDS011;10274;49.022;9.338;2023-04-24T13:23:02;1.97;;;1.73;;
20230;SDS011;10274;49.022;9.338;2023-04-24T13:28:00;3.20;;;2.03;;
20230;SDS011;10274;49.022;9.338;2023-04-24T13:30:27;2.00;;;1.80;;
20230;SDS011;10274;49.022;9.338;2023-04-24T13:32:53;1.67;;;1.43;;
20230;SDS011;10274;49.022;9.338;2023-04-24T13:35:21;2.73;;;1.90;;
20230;SDS011;10274;49.022;9.338;2023-04-24T13:37:48;2.33;;;1.60;;
20230;SDS011;10274;49.022;9.338;2023-04-24T13:40:15;2.80;;;1.37;;
20230;SDS011;10274;49.022;9.338;2023-04-24T13:42:41;2.10;;;1.50;;
20230;SDS011;10274;49.022;9.338;2023-04-24T13:45:09;3.70;;;1.57;;
20230;SDS011;10274;49.022;9.338;2023-04-24T13:47:36;2.07;;;1.30;;
20230;SDS011;10274;49.022;9.338;2023-04-24T13:50:06;3.00;;;1.60;;
20230;SDS011;10274;49.022;9.338;2023-04-24T13:52:34;1.20;;;1.10;;
20230;SDS011;10274;49.022;9.338;2023-04-24T13:55:01;1.20;;;1.10;;
20230;SDS011;10274;49.022;9.338;2023-04-24T13:57:28;2.07;;;1.60;;
20230;SDS011;10274;49.022;9.338;2023-04-24T13:59:55;2.43;;;1.50;;
20230;SDS011;10274;49.022;9.338;2023-04-24T14:02:26;1.37;;;1.23;;
20230;SDS011;10274;49.022;9.338;2023-04-24T14:04:53;1.20;;;1.10;;
20230;SDS011;10274;49.022;9.338;2023-04-24T14:07:19;1.40;;;1.30;;
20230;SDS011;10274;49.022;9.338;2023-04-24T14:09:47;1.90;;;1.50;;
20230;SDS011;10274;49.022;9.338;2023-04-24T14:12:14;1.50;;;1.40;;
20230;SDS011;10274;49.022;9.338;2023-04-24T14:14:44;1.40;;;1.10;;
20230;SDS011;10274;49.022;9.338;2023-04-24T14:17:11;1.70;;;1.10;;
20230;SDS011;10274;49.022;9.338;2023-04-24T14:19:38;3.57;;;1.33;;
20230;SDS011;10274;49.022;9.338;2023-04-24T14:22:05;1.20;;;1.10;;
20230;SDS011;10274;49.022;9.338;2023-04-24T14:24:32;1.20;;;1.10;;
20230;SDS011;10274;49.022;9.338;2023-04-24T14:27:00;1.27;;;1.10;;
20230;SDS011;10274;49.022;9.338;2023-04-24T14:29:26;1.53;;;1.23;;
20230;SDS011;10274;49.022;9.338;2023-04-24T14:31:53;1.20;;;1.10;;
20230;SDS011;10274;49.022;9.338;2023-04-24T14:34:20;1.27;;;1.17;;
20230;SDS011;10274;49.022;9.338;2023-04-24T14:36:46;1.30;;;1.20;;
20230;SDS011;10274;49.022;9.338;2023-04-24T14:39:13;0.73;;;0.73;;
20230;SDS011;10274;49.022;9.338;2023-04-24T14:41:40;1.20;;;0.97;;
20230;SDS011;10274;49.022;9.338;2023-04-24T14:44:08;1.23;;;1.13;;
20230;SDS011;10274;49.022;9.338;2023-04-24T14:46:35;1.10;;;1.00;;
20230;SDS011;10274;49.022;9.338;2023-04-24T14:49:02;1.50;;;1.20;;
20230;SDS011;10274;49.022;9.338;2023-04-24T14:51:29;1.30;;;1.20;;
20230;SDS011;10274;49.022;9.338;2023-04-24T14:53:56;1.57;;;1.40;;
20230;SDS011;10274;49.022;9.338;2023-04-24T14:56:22;1.90;;;1.47;;